logo tempoitalia

Diretta Meteo Tianjin-Zhangguizhu, Cinalunedì 31 agosto ore 13:00

Mappa
Sereno 30 °C Sereno 24 Ore: T.min 20 T.max 33
Ponente Nord-Est Km/h 10.8 Punto di rugiada: 15 °C Umidità: 40% Visibilità: 10 Km
Il sole sorge alle: 05:38 Il sole tramonta alle: 18:43
31 Agosto 2026 13:00 tempo osservato: Sereno Sereno 30 40 1012 vento: Nord NE 10.8
31 Agosto 2026 12:30 tempo osservato: Sereno Sereno 29 42 1012 vento: Nord N 7.2
31 Agosto 2026 12:00 tempo osservato: Sereno Sereno 29 42 1012 vento: Nord N 7.2
31 Agosto 2026 11:30 tempo osservato: Sereno Sereno 29 42 1012 vento: Nord N/NE 10.8
31 Agosto 2026 11:00 tempo osservato: Sereno Sereno 28 45 1012 vento: Nord N/NE 10.8
31 Agosto 2026 10:30 tempo osservato: Sereno Sereno 28 45 1012 vento: Nord NE 14.4
31 Agosto 2026 10:00 tempo osservato: Sereno Sereno 28 45 1012 vento: Nord NE 14.4
31 Agosto 2026 09:30 tempo osservato: Sereno Sereno 27 47 1012 vento: Nord NE 18
31 Agosto 2026 09:00 tempo osservato: Sereno Sereno 26 50 1011 vento: Nord NE 21.6
31 Agosto 2026 08:30 tempo osservato: Sereno Sereno 26 54 1011 vento: Nord N/NE 21.6
31 Agosto 2026 08:00 tempo osservato: Sereno Sereno 24 64 1011 vento: Nord N 18
31 Agosto 2026 07:30 tempo osservato: Sereno Sereno 23 73 1011 vento: Nord N 18
31 Agosto 2026 07:00 tempo osservato: Sereno Sereno 21 82 1011 vento: Nord N/NO 14.4
31 Agosto 2026 06:30 tempo osservato: Sereno Sereno 21 82 1010 vento: Nord N 3.6
31 Agosto 2026 06:00 tempo osservato: Sereno Sereno 20 77 1010 vento: Nord N 7.2
31 Agosto 2026 05:30 tempo osservato: Sereno Sereno 20 82 1010 vento: Nord N/NO 10.8
31 Agosto 2026 05:00 tempo osservato: Sereno Sereno 21 77 1009 vento: Nord N 3.6
31 Agosto 2026 04:30 tempo osservato: Sereno Sereno 20 77 1009 vento: Nord N 3.6
31 Agosto 2026 04:00 tempo osservato: Sereno Sereno 20 82 1009 vento: Nord N 0
31 Agosto 2026 03:30 tempo osservato: Sereno Sereno 21 77 1009 vento: Nord N 0
31 Agosto 2026 03:00 tempo osservato: Sereno Sereno 21 73 1009 vento: Nord N 0
31 Agosto 2026 02:30 tempo osservato: Sereno Sereno 21 73 1009 vento: Nord N 3.6
31 Agosto 2026 02:00 tempo osservato: Sereno Sereno 22 64 1009 vento: Nord N 0
31 Agosto 2026 01:30 tempo osservato: Sereno Sereno 23 60 1009 vento: Nord N 0
31 Agosto 2026 01:00 tempo osservato: Sereno Sereno 22 68 1009 vento: Nord N 0
31 Agosto 2026 00:30 tempo osservato: Sereno Sereno 22 68 1009 vento: Nord N 0
31 Agosto 2026 00:00 tempo osservato: Sereno Sereno 23 56 1009 vento: Nord N 0
30 Agosto 2026 23:30 tempo osservato: Sereno Sereno 23 64 1009 vento: Nord N 0
30 Agosto 2026 23:00 tempo osservato: Sereno Sereno 22 68 1009 vento: Nord N 0
30 Agosto 2026 22:30 tempo osservato: Sereno Sereno 23 68 1009 vento: Nord N 0
30 Agosto 2026 22:00 tempo osservato: Sereno Sereno 24 53 1009 vento: Nord N 3.6
30 Agosto 2026 21:30 tempo osservato: Sereno Sereno 25 50 1009 vento: Nord N 3.6
30 Agosto 2026 21:00 tempo osservato: Sereno Sereno 25 50 1009 vento: Nord N 3.6
30 Agosto 2026 20:30 tempo osservato: Sereno Sereno 26 44 1009 vento: Nord N 3.6
30 Agosto 2026 20:00 tempo osservato: Sereno Sereno 25 57 1009 vento: Nord N 3.6
30 Agosto 2026 19:30 tempo osservato: Sereno Sereno 27 42 1008 vento: Nord N 3.6
30 Agosto 2026 19:00 tempo osservato: Sereno Sereno 29 30 1008 vento: Nord N 3.6
30 Agosto 2026 18:30 tempo osservato: Sereno Sereno 30 28 1008 vento: Nord N 3.6
30 Agosto 2026 18:00 tempo osservato: Sereno Sereno 31 29 1008 vento: Nord N 7.2
30 Agosto 2026 17:30 tempo osservato: Sereno Sereno 32 22 1008 vento: Nord N 7.2
30 Agosto 2026 17:00 tempo osservato: Sereno Sereno 32 22 1008 vento: Nord N 10.8
30 Agosto 2026 16:30 tempo osservato: Sereno Sereno 32 22 1008 vento: Nord N 14.4
30 Agosto 2026 16:00 tempo osservato: Sereno Sereno 32 22 1008 vento: Nord N 14.4
30 Agosto 2026 15:30 tempo osservato: Sereno Sereno 33 22 1008 vento: Nord N 21.6
30 Agosto 2026 15:00 tempo osservato: Sereno Sereno 33 21 1008 vento: Nord NO 21.6
30 Agosto 2026 14:30 tempo osservato: Sereno Sereno 33 19 1008 vento: Nord N/NO 21.6
30 Agosto 2026 14:00 tempo osservato: Sereno Sereno 33 22 1008 vento: Nord N/NO 21.6